sensor_id;sensor_type;location;lat;lon;timestamp;temperature;humidity
55795;DHT22;41716;51.910;4.430;2023-02-01T00:02:58;6.90;99.90
55795;DHT22;41716;51.910;4.430;2023-02-01T00:07:59;7.20;99.90
55795;DHT22;41716;51.910;4.430;2023-02-01T00:13:01;7.00;99.90
55795;DHT22;41716;51.910;4.430;2023-02-01T00:18:04;6.80;99.90
55795;DHT22;41716;51.910;4.430;2023-02-01T00:23:06;6.90;99.90
55795;DHT22;41716;51.910;4.430;2023-02-01T00:28:10;6.80;99.90
55795;DHT22;41716;51.910;4.430;2023-02-01T00:33:14;6.80;99.90
55795;DHT22;41716;51.910;4.430;2023-02-01T00:38:16;6.80;99.90
55795;DHT22;41716;51.910;4.430;2023-02-01T00:43:18;6.80;99.90
55795;DHT22;41716;51.910;4.430;2023-02-01T00:48:21;7.00;99.90
55795;DHT22;41716;51.910;4.430;2023-02-01T00:53:22;6.80;99.90
55795;DHT22;41716;51.910;4.430;2023-02-01T00:58:24;6.80;99.90
55795;DHT22;41716;51.910;4.430;2023-02-01T01:03:28;6.70;99.90
55795;DHT22;41716;51.910;4.430;2023-02-01T01:08:34;6.70;99.90
55795;DHT22;41716;51.910;4.430;2023-02-01T01:13:36;6.80;99.90
55795;DHT22;41716;51.910;4.430;2023-02-01T01:18:39;6.80;99.90
55795;DHT22;41716;51.910;4.430;2023-02-01T01:23:42;6.80;99.90
55795;DHT22;41716;51.910;4.430;2023-02-01T01:28:44;7.20;99.90
55795;DHT22;41716;51.910;4.430;2023-02-01T01:33:49;7.00;99.90
55795;DHT22;41716;51.910;4.430;2023-02-01T01:38:51;7.10;99.90
55795;DHT22;41716;51.910;4.430;2023-02-01T01:43:55;7.20;99.90
55795;DHT22;41716;51.910;4.430;2023-02-01T01:49:03;7.00;99.90
55795;DHT22;41716;51.910;4.430;2023-02-01T01:54:09;7.00;99.90
55795;DHT22;41716;51.910;4.430;2023-02-01T01:59:13;7.10;99.90
55795;DHT22;41716;51.910;4.430;2023-02-01T02:04:17;6.90;99.90
55795;DHT22;41716;51.910;4.430;2023-02-01T02:09:19;7.00;99.90
55795;DHT22;41716;51.910;4.430;2023-02-01T02:14:22;6.90;99.90
55795;DHT22;41716;51.910;4.430;2023-02-01T02:19:51;7.00;99.90
55795;DHT22;41716;51.910;4.430;2023-02-01T02:25:29;7.10;99.90
55795;DHT22;41716;51.910;4.430;2023-02-01T02:31:21;7.10;99.90
55795;DHT22;41716;51.910;4.430;2023-02-01T02:36:45;6.80;99.90
55795;DHT22;41716;51.910;4.430;2023-02-01T02:41:51;6.80;99.90
55795;DHT22;41716;51.910;4.430;2023-02-01T02:47:16;6.90;99.90
55795;DHT22;41716;51.910;4.430;2023-02-01T02:52:27;7.00;99.90
55795;DHT22;41716;51.910;4.430;2023-02-01T02:57:47;6.80;99.90
55795;DHT22;41716;51.910;4.430;2023-02-01T03:03:07;7.10;99.90
55795;DHT22;41716;51.910;4.430;2023-02-01T03:08:28;6.80;99.90
55795;DHT22;41716;51.910;4.430;2023-02-01T03:13:36;6.90;99.90
55795;DHT22;41716;51.910;4.430;2023-02-01T03:18:45;7.00;99.90
55795;DHT22;41716;51.910;4.430;2023-02-01T03:23:53;6.90;99.90
55795;DHT22;41716;51.910;4.430;2023-02-01T03:29:16;6.80;99.90
55795;DHT22;41716;51.910;4.430;2023-02-01T03:34:19;6.80;99.90
55795;DHT22;41716;51.910;4.430;2023-02-01T03:39:26;7.10;99.90
55795;DHT22;41716;51.910;4.430;2023-02-01T03:44:33;6.70;99.90
55795;DHT22;41716;51.910;4.430;2023-02-01T03:49:38;7.00;99.90
55795;DHT22;41716;51.910;4.430;2023-02-01T03:54:43;6.70;99.90
55795;DHT22;41716;51.910;4.430;2023-02-01T03:59:46;6.80;99.90
55795;DHT22;41716;51.910;4.430;2023-02-01T04:04:48;6.90;99.90
55795;DHT22;41716;51.910;4.430;2023-02-01T04:09:51;6.90;99.90
55795;DHT22;41716;51.910;4.430;2023-02-01T04:14:52;6.60;99.90
55795;DHT22;41716;51.910;4.430;2023-02-01T04:19:54;7.00;99.90
55795;DHT22;41716;51.910;4.430;2023-02-01T04:24:57;6.70;99.90
55795;DHT22;41716;51.910;4.430;2023-02-01T04:29:59;7.00;99.90
55795;DHT22;41716;51.910;4.430;2023-02-01T04:35:01;7.00;99.90
55795;DHT22;41716;51.910;4.430;2023-02-01T04:40:05;6.90;99.90
55795;DHT22;41716;51.910;4.430;2023-02-01T04:45:08;6.90;99.90
55795;DHT22;41716;51.910;4.430;2023-02-01T04:50:10;7.10;99.90
55795;DHT22;41716;51.910;4.430;2023-02-01T04:55:13;7.10;99.90
55795;DHT22;41716;51.910;4.430;2023-02-01T05:00:16;7.20;99.90
55795;DHT22;41716;51.910;4.430;2023-02-01T05:05:18;7.00;99.90
55795;DHT22;41716;51.910;4.430;2023-02-01T05:10:21;7.10;99.90
55795;DHT22;41716;51.910;4.430;2023-02-01T05:15:23;7.00;99.90
55795;DHT22;41716;51.910;4.430;2023-02-01T05:20:25;6.80;99.90
55795;DHT22;41716;51.910;4.430;2023-02-01T05:25:28;7.00;99.90
55795;DHT22;41716;51.910;4.430;2023-02-01T05:30:30;6.60;99.90
55795;DHT22;41716;51.910;4.430;2023-02-01T05:35:32;6.80;99.90
55795;DHT22;41716;51.910;4.430;2023-02-01T05:40:36;6.90;99.90
55795;DHT22;41716;51.910;4.430;2023-02-01T05:45:37;6.80;99.90
55795;DHT22;41716;51.910;4.430;2023-02-01T05:50:39;6.80;99.90
55795;DHT22;41716;51.910;4.430;2023-02-01T05:55:42;7.00;99.90
55795;DHT22;41716;51.910;4.430;2023-02-01T06:00:44;6.60;99.90
55795;DHT22;41716;51.910;4.430;2023-02-01T06:05:47;6.80;99.90
55795;DHT22;41716;51.910;4.430;2023-02-01T06:10:50;7.00;99.90
55795;DHT22;41716;51.910;4.430;2023-02-01T06:15:52;7.00;99.90
55795;DHT22;41716;51.910;4.430;2023-02-01T06:20:54;6.60;99.90
55795;DHT22;41716;51.910;4.430;2023-02-01T06:26:02;7.00;99.90
55795;DHT22;41716;51.910;4.430;2023-02-01T06:31:05;7.00;99.90
55795;DHT22;41716;51.910;4.430;2023-02-01T06:36:09;6.70;99.90
55795;DHT22;41716;51.910;4.430;2023-02-01T06:41:13;6.90;99.90
55795;DHT22;41716;51.910;4.430;2023-02-01T06:46:15;6.60;99.90
55795;DHT22;41716;51.910;4.430;2023-02-01T06:51:21;6.60;99.90
55795;DHT22;41716;51.910;4.430;2023-02-01T06:56:25;6.70;99.90
55795;DHT22;41716;51.910;4.430;2023-02-01T07:01:27;6.70;99.90
55795;DHT22;41716;51.910;4.430;2023-02-01T07:06:29;6.60;99.90
55795;DHT22;41716;51.910;4.430;2023-02-01T07:11:32;6.90;99.90
55795;DHT22;41716;51.910;4.430;2023-02-01T07:16:34;6.70;99.90
55795;DHT22;41716;51.910;4.430;2023-02-01T07:21:36;6.70;99.90
55795;DHT22;41716;51.910;4.430;2023-02-01T07:26:39;6.60;99.90
55795;DHT22;41716;51.910;4.430;2023-02-01T07:31:41;6.80;99.90
55795;DHT22;41716;51.910;4.430;2023-02-01T07:36:42;7.00;99.90
55795;DHT22;41716;51.910;4.430;2023-02-01T07:41:46;7.10;99.90
55795;DHT22;41716;51.910;4.430;2023-02-01T07:46:47;6.70;99.90
55795;DHT22;41716;51.910;4.430;2023-02-01T07:51:49;7.20;99.90
55795;DHT22;41716;51.910;4.430;2023-02-01T07:56:52;6.80;99.90
55795;DHT22;41716;51.910;4.430;2023-02-01T08:01:54;7.20;99.90
55795;DHT22;41716;51.910;4.430;2023-02-01T08:06:56;6.80;99.90
55795;DHT22;41716;51.910;4.430;2023-02-01T08:11:59;6.90;99.90
55795;DHT22;41716;51.910;4.430;2023-02-01T08:17:01;7.00;99.90
55795;DHT22;41716;51.910;4.430;2023-02-01T08:22:03;7.00;99.90
55795;DHT22;41716;51.910;4.430;2023-02-01T08:27:08;7.30;99.90
55795;DHT22;41716;51.910;4.430;2023-02-01T08:32:10;7.40;99.90
55795;DHT22;41716;51.910;4.430;2023-02-01T08:37:11;7.50;99.90
55795;DHT22;41716;51.910;4.430;2023-02-01T08:42:15;7.50;99.90
55795;DHT22;41716;51.910;4.430;2023-02-01T08:47:34;7.30;99.90
55795;DHT22;41716;51.910;4.430;2023-02-01T08:52:36;7.30;99.90
55795;DHT22;41716;51.910;4.430;2023-02-01T08:57:39;7.80;99.90
55795;DHT22;41716;51.910;4.430;2023-02-01T09:02:41;7.50;99.90
55795;DHT22;41716;51.910;4.430;2023-02-01T09:07:43;7.80;99.90
55795;DHT22;41716;51.910;4.430;2023-02-01T09:12:46;8.00;99.90
55795;DHT22;41716;51.910;4.430;2023-02-01T09:17:48;8.00;99.90
55795;DHT22;41716;51.910;4.430;2023-02-01T09:22:50;8.00;99.90
55795;DHT22;41716;51.910;4.430;2023-02-01T09:27:54;8.30;99.90
55795;DHT22;41716;51.910;4.430;2023-02-01T09:32:56;9.10;99.90
55795;DHT22;41716;51.910;4.430;2023-02-01T09:37:57;9.20;99.90
55795;DHT22;41716;51.910;4.430;2023-02-01T09:43:10;9.00;99.90
55795;DHT22;41716;51.910;4.430;2023-02-01T09:48:15;8.90;99.90
55795;DHT22;41716;51.910;4.430;2023-02-01T09:53:23;8.80;99.90
55795;DHT22;41716;51.910;4.430;2023-02-01T09:58:32;8.80;99.90
55795;DHT22;41716;51.910;4.430;2023-02-01T10:03:35;8.60;99.90
55795;DHT22;41716;51.910;4.430;2023-02-01T10:09:01;8.60;99.90
55795;DHT22;41716;51.910;4.430;2023-02-01T10:14:18;8.40;99.90
55795;DHT22;41716;51.910;4.430;2023-02-01T10:19:24;8.60;99.90
55795;DHT22;41716;51.910;4.430;2023-02-01T10:24:38;8.40;99.90
55795;DHT22;41716;51.910;4.430;2023-02-01T10:29:44;8.20;99.90
55795;DHT22;41716;51.910;4.430;2023-02-01T10:34:50;8.50;99.90
55795;DHT22;41716;51.910;4.430;2023-02-01T10:39:55;8.30;99.90
55795;DHT22;41716;51.910;4.430;2023-02-01T10:45:02;8.50;99.90
55795;DHT22;41716;51.910;4.430;2023-02-01T10:50:14;8.30;99.90
55795;DHT22;41716;51.910;4.430;2023-02-01T10:55:27;8.70;99.90
55795;DHT22;41716;51.910;4.430;2023-02-01T11:00:43;8.40;99.90
55795;DHT22;41716;51.910;4.430;2023-02-01T11:05:46;8.70;99.90
55795;DHT22;41716;51.910;4.430;2023-02-01T11:10:57;8.70;99.90
55795;DHT22;41716;51.910;4.430;2023-02-01T11:16:03;8.50;99.90
55795;DHT22;41716;51.910;4.430;2023-02-01T11:21:06;8.70;99.90
55795;DHT22;41716;51.910;4.430;2023-02-01T11:26:12;8.60;99.90
55795;DHT22;41716;51.910;4.430;2023-02-01T11:31:15;8.80;99.90
55795;DHT22;41716;51.910;4.430;2023-02-01T11:36:20;8.80;99.90
55795;DHT22;41716;51.910;4.430;2023-02-01T11:41:24;8.50;99.90
55795;DHT22;41716;51.910;4.430;2023-02-01T11:46:30;8.60;99.90
55795;DHT22;41716;51.910;4.430;2023-02-01T11:51:44;8.80;99.90
55795;DHT22;41716;51.910;4.430;2023-02-01T11:56:58;8.90;99.90
55795;DHT22;41716;51.910;4.430;2023-02-01T12:02:16;8.80;99.90
55795;DHT22;41716;51.910;4.430;2023-02-01T12:07:27;8.90;99.90
55795;DHT22;41716;51.910;4.430;2023-02-01T12:12:37;8.90;99.90
55795;DHT22;41716;51.910;4.430;2023-02-01T12:17:56;8.80;99.90
55795;DHT22;41716;51.910;4.430;2023-02-01T12:23:18;8.80;99.90
55795;DHT22;41716;51.910;4.430;2023-02-01T12:28:59;8.80;99.90
55795;DHT22;41716;51.910;4.430;2023-02-01T12:34:25;9.50;99.90
55795;DHT22;41716;51.910;4.430;2023-02-01T12:39:31;9.30;99.90
55795;DHT22;41716;51.910;4.430;2023-02-01T12:44:39;9.50;99.90
55795;DHT22;41716;51.910;4.430;2023-02-01T12:49:49;9.40;99.90
55795;DHT22;41716;51.910;4.430;2023-02-01T12:54:56;9.40;99.90
55795;DHT22;41716;51.910;4.430;2023-02-01T13:00:07;9.30;99.90
55795;DHT22;41716;51.910;4.430;2023-02-01T13:05:19;9.20;99.90
55795;DHT22;41716;51.910;4.430;2023-02-01T13:10:28;9.20;99.90
55795;DHT22;41716;51.910;4.430;2023-02-01T13:15:37;9.30;99.90
55795;DHT22;41716;51.910;4.430;2023-02-01T13:20:47;9.30;99.90
55795;DHT22;41716;51.910;4.430;2023-02-01T13:25:50;9.40;99.90
55795;DHT22;41716;51.910;4.430;2023-02-01T13:31:10;9.50;99.90
55795;DHT22;41716;51.910;4.430;2023-02-01T13:36:52;9.60;99.90
55795;DHT22;41716;51.910;4.430;2023-02-01T13:41:58;9.20;99.90
55795;DHT22;41716;51.910;4.430;2023-02-01T13:47:08;9.30;99.90
55795;DHT22;41716;51.910;4.430;2023-02-01T13:52:26;9.20;99.90
55795;DHT22;41716;51.910;4.430;2023-02-01T13:57:35;9.10;99.90
55795;DHT22;41716;51.910;4.430;2023-02-01T14:03:08;9.20;99.90
55795;DHT22;41716;51.910;4.430;2023-02-01T14:08:22;9.20;99.90
55795;DHT22;41716;51.910;4.430;2023-02-01T14:13:27;9.20;99.90
55795;DHT22;41716;51.910;4.430;2023-02-01T14:18:49;9.00;99.90
55795;DHT22;41716;51.910;4.430;2023-02-01T14:23:58;9.00;99.90
55795;DHT22;41716;51.910;4.430;2023-02-01T14:29:10;9.20;99.90
55795;DHT22;41716;51.910;4.430;2023-02-01T14:34:19;9.20;99.90
55795;DHT22;41716;51.910;4.430;2023-02-01T14:39:31;8.90;99.90
55795;DHT22;41716;51.910;4.430;2023-02-01T14:44:36;9.10;99.90
55795;DHT22;41716;51.910;4.430;2023-02-01T14:49:47;9.10;99.90
55795;DHT22;41716;51.910;4.430;2023-02-01T14:54:54;8.80;99.90
55795;DHT22;41716;51.910;4.430;2023-02-01T15:00:05;9.10;99.90
55795;DHT22;41716;51.910;4.430;2023-02-01T15:05:29;8.90;99.90
55795;DHT22;41716;51.910;4.430;2023-02-01T15:10:40;8.90;99.90
55795;DHT22;41716;51.910;4.430;2023-02-01T15:15:43;8.90;99.90
55795;DHT22;41716;51.910;4.430;2023-02-01T15:20:56;9.10;99.90
55795;DHT22;41716;51.910;4.430;2023-02-01T15:26:00;9.00;99.90
55795;DHT22;41716;51.910;4.430;2023-02-01T15:31:04;9.10;99.90
55795;DHT22;41716;51.910;4.430;2023-02-01T15:36:09;8.80;99.90
55795;DHT22;41716;51.910;4.430;2023-02-01T15:41:15;8.90;99.90
55795;DHT22;41716;51.910;4.430;2023-02-01T15:46:21;8.90;99.90
55795;DHT22;41716;51.910;4.430;2023-02-01T15:51:25;8.80;99.90
55795;DHT22;41716;51.910;4.430;2023-02-01T15:56:34;9.00;99.90
55795;DHT22;41716;51.910;4.430;2023-02-01T16:01:37;9.00;99.90
55795;DHT22;41716;51.910;4.430;2023-02-01T16:06:46;8.90;99.90
55795;DHT22;41716;51.910;4.430;2023-02-01T16:11:54;8.90;99.90
55795;DHT22;41716;51.910;4.430;2023-02-01T16:16:57;8.60;99.90
55795;DHT22;41716;51.910;4.430;2023-02-01T16:21:59;9.00;99.90
55795;DHT22;41716;51.910;4.430;2023-02-01T16:27:02;8.70;99.90
55795;DHT22;41716;51.910;4.430;2023-02-01T16:32:05;8.70;99.90
55795;DHT22;41716;51.910;4.430;2023-02-01T16:37:11;8.90;99.90
55795;DHT22;41716;51.910;4.430;2023-02-01T16:42:16;8.90;99.90
55795;DHT22;41716;51.910;4.430;2023-02-01T16:47:20;8.70;99.90
55795;DHT22;41716;51.910;4.430;2023-02-01T16:52:25;8.50;99.90
55795;DHT22;41716;51.910;4.430;2023-02-01T16:57:28;8.70;99.90
55795;DHT22;41716;51.910;4.430;2023-02-01T17:02:30;8.80;99.90
55795;DHT22;41716;51.910;4.430;2023-02-01T17:07:32;8.80;99.90
55795;DHT22;41716;51.910;4.430;2023-02-01T17:12:35;8.50;99.90
55795;DHT22;41716;51.910;4.430;2023-02-01T17:17:38;8.50;99.90
55795;DHT22;41716;51.910;4.430;2023-02-01T17:22:42;8.70;99.90
55795;DHT22;41716;51.910;4.430;2023-02-01T17:27:46;8.40;99.90
55795;DHT22;41716;51.910;4.430;2023-02-01T17:32:48;8.40;99.90
55795;DHT22;41716;51.910;4.430;2023-02-01T17:37:50;8.50;99.90
55795;DHT22;41716;51.910;4.430;2023-02-01T17:42:54;8.90;99.90
55795;DHT22;41716;51.910;4.430;2023-02-01T17:47:57;9.00;99.90
55795;DHT22;41716;51.910;4.430;2023-02-01T17:52:59;8.80;99.90
55795;DHT22;41716;51.910;4.430;2023-02-01T17:58:03;8.90;99.90
55795;DHT22;41716;51.910;4.430;2023-02-01T18:03:05;8.60;99.90
55795;DHT22;41716;51.910;4.430;2023-02-01T18:08:07;8.90;99.90
55795;DHT22;41716;51.910;4.430;2023-02-01T18:13:11;8.90;99.90
55795;DHT22;41716;51.910;4.430;2023-02-01T18:18:13;8.90;99.90
55795;DHT22;41716;51.910;4.430;2023-02-01T18:23:17;8.50;99.90
55795;DHT22;41716;51.910;4.430;2023-02-01T18:28:20;8.70;99.90
55795;DHT22;41716;51.910;4.430;2023-02-01T18:33:22;8.60;99.90
55795;DHT22;41716;51.910;4.430;2023-02-01T18:38:24;9.00;99.90
55795;DHT22;41716;51.910;4.430;2023-02-01T18:43:27;8.80;99.90
55795;DHT22;41716;51.910;4.430;2023-02-01T18:48:29;8.90;99.90
55795;DHT22;41716;51.910;4.430;2023-02-01T18:53:31;9.00;99.90
55795;DHT22;41716;51.910;4.430;2023-02-01T18:58:34;8.90;99.90
55795;DHT22;41716;51.910;4.430;2023-02-01T19:03:36;9.10;99.90
55795;DHT22;41716;51.910;4.430;2023-02-01T19:08:37;9.00;99.90
55795;DHT22;41716;51.910;4.430;2023-02-01T19:13:40;8.90;99.90
55795;DHT22;41716;51.910;4.430;2023-02-01T19:18:42;8.90;99.90
55795;DHT22;41716;51.910;4.430;2023-02-01T19:23:44;8.50;99.90
55795;DHT22;41716;51.910;4.430;2023-02-01T19:28:47;8.80;99.90
55795;DHT22;41716;51.910;4.430;2023-02-01T19:33:49;9.00;99.90
55795;DHT22;41716;51.910;4.430;2023-02-01T19:38:51;8.50;99.90
55795;DHT22;41716;51.910;4.430;2023-02-01T19:43:54;8.60;99.90
55795;DHT22;41716;51.910;4.430;2023-02-01T19:48:58;8.50;99.90
55795;DHT22;41716;51.910;4.430;2023-02-01T19:54:00;8.50;99.90
55795;DHT22;41716;51.910;4.430;2023-02-01T19:59:03;8.50;99.90
55795;DHT22;41716;51.910;4.430;2023-02-01T20:04:05;8.50;99.90
55795;DHT22;41716;51.910;4.430;2023-02-01T20:09:07;8.50;99.90
55795;DHT22;41716;51.910;4.430;2023-02-01T20:14:10;9.00;99.90
55795;DHT22;41716;51.910;4.430;2023-02-01T20:19:12;8.90;99.90
55795;DHT22;41716;51.910;4.430;2023-02-01T20:24:16;8.70;99.90
55795;DHT22;41716;51.910;4.430;2023-02-01T20:29:20;8.80;99.90
55795;DHT22;41716;51.910;4.430;2023-02-01T20:34:22;8.50;99.90
55795;DHT22;41716;51.910;4.430;2023-02-01T20:39:24;8.70;99.90
55795;DHT22;41716;51.910;4.430;2023-02-01T20:44:27;9.10;99.90
55795;DHT22;41716;51.910;4.430;2023-02-01T20:49:28;8.90;99.90
55795;DHT22;41716;51.910;4.430;2023-02-01T20:54:30;9.20;99.90
55795;DHT22;41716;51.910;4.430;2023-02-01T20:59:33;8.50;99.90
55795;DHT22;41716;51.910;4.430;2023-02-01T21:04:35;9.20;99.90
55795;DHT22;41716;51.910;4.430;2023-02-01T21:09:37;8.90;99.90
55795;DHT22;41716;51.910;4.430;2023-02-01T21:14:42;8.70;99.90
55795;DHT22;41716;51.910;4.430;2023-02-01T21:19:44;8.70;99.90
55795;DHT22;41716;51.910;4.430;2023-02-01T21:24:46;8.90;99.90
55795;DHT22;41716;51.910;4.430;2023-02-01T21:29:49;9.00;99.90
55795;DHT22;41716;51.910;4.430;2023-02-01T21:34:51;9.10;99.90
55795;DHT22;41716;51.910;4.430;2023-02-01T21:39:53;9.00;99.90
55795;DHT22;41716;51.910;4.430;2023-02-01T21:44:57;8.80;99.90
55795;DHT22;41716;51.910;4.430;2023-02-01T21:50:01;8.70;99.90
55795;DHT22;41716;51.910;4.430;2023-02-01T21:55:03;8.60;99.90
55795;DHT22;41716;51.910;4.430;2023-02-01T22:00:09;8.90;99.90
55795;DHT22;41716;51.910;4.430;2023-02-01T22:05:11;8.40;99.90
55795;DHT22;41716;51.910;4.430;2023-02-01T22:10:14;9.10;99.90
55795;DHT22;41716;51.910;4.430;2023-02-01T22:15:17;8.90;99.90
55795;DHT22;41716;51.910;4.430;2023-02-01T22:20:19;8.40;99.90
55795;DHT22;41716;51.910;4.430;2023-02-01T22:25:20;8.40;99.90
55795;DHT22;41716;51.910;4.430;2023-02-01T22:30:25;9.10;99.90
55795;DHT22;41716;51.910;4.430;2023-02-01T22:35:26;8.40;99.90
55795;DHT22;41716;51.910;4.430;2023-02-01T22:40:28;8.40;99.90
55795;DHT22;41716;51.910;4.430;2023-02-01T22:45:31;8.80;99.90
55795;DHT22;41716;51.910;4.430;2023-02-01T22:50:33;9.20;99.90
55795;DHT22;41716;51.910;4.430;2023-02-01T22:55:35;9.00;99.90
55795;DHT22;41716;51.910;4.430;2023-02-01T23:00:38;8.40;99.90
55795;DHT22;41716;51.910;4.430;2023-02-01T23:05:40;8.40;99.90
55795;DHT22;41716;51.910;4.430;2023-02-01T23:10:42;8.30;99.90
55795;DHT22;41716;51.910;4.430;2023-02-01T23:15:45;8.80;99.90
55795;DHT22;41716;51.910;4.430;2023-02-01T23:20:47;8.80;99.90
55795;DHT22;41716;51.910;4.430;2023-02-01T23:25:49;9.00;99.90
55795;DHT22;41716;51.910;4.430;2023-02-01T23:30:53;8.50;99.90
55795;DHT22;41716;51.910;4.430;2023-02-01T23:35:56;8.80;99.90
55795;DHT22;41716;51.910;4.430;2023-02-01T23:40:59;8.50;99.90
55795;DHT22;41716;51.910;4.430;2023-02-01T23:46:03;9.00;99.90
55795;DHT22;41716;51.910;4.430;2023-02-01T23:51:05;8.90;99.90
55795;DHT22;41716;51.910;4.430;2023-02-01T23:56:14;8.50;99.90
